createdAt,value
2017-08-22T00:01:14.988Z,99.90
2017-08-22T00:03:43.301Z,99.90
2017-08-22T00:06:11.709Z,99.90
2017-08-22T00:08:39.996Z,99.80
2017-08-22T00:11:08.325Z,99.90
2017-08-22T00:13:36.617Z,99.70
2017-08-22T00:16:04.934Z,99.50
2017-08-22T00:18:33.229Z,99.40
2017-08-22T00:21:01.506Z,99.60
2017-08-22T00:23:29.937Z,99.40
2017-08-22T00:25:58.210Z,99.40
2017-08-22T00:28:26.532Z,99.30
2017-08-22T00:30:54.844Z,99.30
2017-08-22T00:33:23.161Z,99.40
2017-08-22T00:35:51.456Z,99.40
2017-08-22T00:38:19.767Z,99.40
2017-08-22T00:40:48.154Z,99.30
2017-08-22T00:43:16.466Z,99.30
2017-08-22T00:45:44.751Z,99.20
2017-08-22T00:48:13.039Z,99.20
2017-08-22T00:50:41.350Z,99.10
2017-08-22T00:53:09.700Z,98.90
2017-08-22T00:55:37.975Z,98.90
2017-08-22T00:58:06.287Z,99.00
2017-08-22T01:00:34.595Z,99.00
2017-08-22T01:03:02.919Z,98.90
2017-08-22T01:05:31.242Z,99.10
2017-08-22T01:07:59.541Z,98.80
2017-08-22T01:10:27.928Z,99.00
2017-08-22T01:12:56.211Z,99.10
2017-08-22T01:15:24.528Z,99.20
2017-08-22T01:17:52.812Z,99.20
2017-08-22T01:20:21.132Z,99.20
2017-08-22T01:22:49.420Z,99.30
2017-08-22T01:25:17.759Z,99.50
2017-08-22T01:27:46.040Z,99.40
2017-08-22T01:30:14.328Z,99.40
2017-08-22T01:32:42.644Z,99.00
2017-08-22T01:35:11.028Z,99.20
2017-08-22T01:37:39.369Z,99.00
2017-08-22T01:40:07.679Z,99.20
2017-08-22T01:42:36.010Z,99.10
2017-08-22T01:45:04.393Z,99.20
2017-08-22T01:47:32.703Z,99.10
2017-08-22T01:50:00.983Z,99.30
2017-08-22T01:52:29.360Z,99.00
2017-08-22T01:54:57.643Z,99.20
2017-08-22T01:57:25.960Z,99.20
2017-08-22T01:59:54.248Z,99.10
2017-08-22T02:02:22.558Z,99.20
2017-08-22T02:04:50.838Z,99.20
2017-08-22T02:07:19.196Z,99.20
2017-08-22T02:09:47.507Z,99.00
2017-08-22T02:12:16.586Z,99.20
2017-08-22T02:14:44.880Z,99.20
2017-08-22T02:17:13.167Z,99.10
2017-08-22T02:19:41.505Z,99.00
2017-08-22T02:22:09.788Z,99.20
2017-08-22T02:24:38.121Z,99.40
2017-08-22T02:27:06.398Z,99.10
2017-08-22T02:29:35.664Z,99.30
2017-08-22T02:32:03.966Z,99.20
2017-08-22T02:34:32.251Z,99.10
2017-08-22T02:37:00.612Z,99.10
2017-08-22T02:39:29.010Z,99.40
2017-08-22T02:41:57.332Z,99.40
2017-08-22T02:44:25.689Z,99.30
2017-08-22T02:46:53.967Z,99.10
2017-08-22T02:49:22.360Z,99.10
2017-08-22T02:51:50.684Z,99.00
2017-08-22T02:54:18.996Z,99.30
2017-08-22T02:56:47.294Z,99.40
2017-08-22T02:59:15.616Z,99.20
2017-08-22T03:01:43.945Z,99.20
2017-08-22T03:04:12.241Z,99.30
2017-08-22T03:06:40.569Z,99.30
2017-08-22T03:09:08.850Z,99.30
2017-08-22T03:11:37.159Z,99.30
2017-08-22T03:14:05.560Z,99.40
2017-08-22T03:16:33.867Z,99.30
2017-08-22T03:19:02.161Z,99.30
2017-08-22T03:21:30.467Z,99.10
2017-08-22T03:23:58.804Z,99.40
2017-08-22T03:26:27.087Z,99.50
2017-08-22T03:28:55.408Z,99.30
2017-08-22T03:31:23.709Z,99.40
2017-08-22T03:33:52.023Z,99.50
2017-08-22T03:36:20.311Z,99.10
2017-08-22T03:38:48.632Z,99.40
2017-08-22T03:41:16.915Z,99.50
2017-08-22T03:43:45.231Z,99.40
2017-08-22T03:46:13.528Z,99.50
2017-08-22T03:48:41.908Z,99.40
2017-08-22T03:51:10.236Z,99.40
2017-08-22T03:53:38.523Z,99.70
2017-08-22T03:58:41.434Z,99.90
2017-08-22T04:01:09.785Z,99.90
2017-08-22T04:03:38.067Z,99.60
2017-08-22T04:06:06.342Z,99.70
2017-08-22T04:08:34.664Z,99.70
2017-08-22T04:11:02.960Z,99.70
2017-08-22T04:13:31.270Z,99.60
2017-08-22T04:15:59.591Z,99.50
2017-08-22T04:18:27.870Z,99.30
2017-08-22T04:20:56.157Z,99.30
2017-08-22T04:23:24.476Z,99.10
2017-08-22T04:25:52.783Z,99.00
2017-08-22T04:28:21.095Z,99.10
2017-08-22T04:30:49.388Z,99.20
2017-08-22T04:33:17.708Z,99.00
2017-08-22T04:35:46.001Z,99.20
2017-08-22T04:38:14.327Z,98.90
2017-08-22T04:40:42.613Z,98.90
2017-08-22T04:43:10.929Z,98.90
2017-08-22T04:45:39.220Z,98.90
2017-08-22T04:48:07.531Z,98.90
2017-08-22T04:50:35.808Z,98.80
2017-08-22T04:53:04.128Z,98.90
2017-08-22T04:55:32.421Z,98.60
2017-08-22T04:58:00.737Z,98.50
2017-08-22T05:00:29.022Z,98.50
2017-08-22T05:02:57.351Z,98.50
2017-08-22T05:05:25.633Z,98.50
2017-08-22T05:07:53.939Z,98.50
2017-08-22T05:10:22.256Z,98.30
2017-08-22T05:12:50.552Z,98.10
2017-08-22T05:15:18.855Z,98.00
2017-08-22T05:17:47.136Z,98.00
2017-08-22T05:20:15.474Z,97.50
2017-08-22T05:22:44.674Z,97.40
2017-08-22T05:25:12.955Z,97.90
2017-08-22T05:27:41.289Z,97.10
2017-08-22T05:30:09.580Z,97.10
2017-08-22T05:32:37.880Z,96.60
2017-08-22T05:35:06.197Z,96.60
2017-08-22T05:37:34.470Z,96.90
2017-08-22T05:40:02.799Z,96.30
2017-08-22T05:42:31.074Z,96.00
2017-08-22T05:44:59.387Z,95.80
2017-08-22T05:47:27.684Z,95.90
2017-08-22T05:49:55.960Z,96.00
2017-08-22T05:52:24.636Z,95.70
2017-08-22T05:54:52.907Z,95.80
2017-08-22T05:57:21.228Z,95.40
2017-08-22T05:59:49.525Z,94.50
2017-08-22T06:02:17.808Z,94.40
2017-08-22T06:04:46.134Z,94.20
2017-08-22T06:07:14.424Z,94.10
2017-08-22T06:09:42.740Z,93.80
2017-08-22T06:12:11.018Z,93.60
2017-08-22T06:14:39.356Z,94.10
2017-08-22T06:17:07.641Z,93.40
2017-08-22T06:19:35.935Z,93.90
2017-08-22T06:22:04.252Z,93.90
2017-08-22T06:24:32.534Z,92.60
2017-08-22T06:27:00.824Z,92.80
2017-08-22T06:29:29.481Z,93.40
2017-08-22T06:31:57.783Z,92.80
2017-08-22T06:34:26.068Z,91.70
2017-08-22T06:36:54.359Z,91.70
2017-08-22T06:39:22.680Z,91.50
2017-08-22T06:41:50.983Z,92.20
2017-08-22T06:44:19.273Z,92.80
2017-08-22T06:46:47.616Z,92.90
2017-08-22T06:49:15.892Z,93.50
2017-08-22T06:51:44.180Z,93.20
2017-08-22T06:54:12.490Z,93.00
2017-08-22T06:56:40.780Z,93.00
2017-08-22T06:59:09.105Z,93.20
2017-08-22T07:01:37.384Z,93.00
2017-08-22T07:04:05.714Z,93.10
2017-08-22T07:06:33.987Z,94.20
2017-08-22T07:09:02.316Z,93.00
2017-08-22T07:11:30.596Z,91.70
2017-08-22T07:13:58.902Z,91.20
2017-08-22T07:16:27.192Z,92.20
2017-08-22T07:18:55.522Z,92.90
2017-08-22T07:21:23.800Z,90.50
2017-08-22T07:23:52.088Z,90.90
2017-08-22T07:26:20.408Z,90.60
2017-08-22T07:28:48.701Z,90.40
2017-08-22T07:31:17.010Z,91.00
2017-08-22T07:33:46.260Z,90.90
2017-08-22T07:36:14.585Z,89.40
2017-08-22T07:38:42.877Z,89.30
2017-08-22T07:41:42.007Z,89.00
2017-08-22T07:44:10.423Z,90.00
2017-08-22T07:46:38.705Z,87.80
2017-08-22T07:49:07.000Z,86.10
2017-08-22T07:51:35.306Z,87.70
2017-08-22T07:54:03.596Z,85.20
2017-08-22T07:56:31.933Z,83.70
2017-08-22T07:59:00.211Z,80.70
2017-08-22T08:01:28.504Z,83.60
2017-08-22T08:03:56.812Z,80.60
2017-08-22T08:06:25.104Z,79.70
2017-08-22T08:08:53.415Z,80.20
2017-08-22T08:11:21.703Z,81.30
2017-08-22T08:13:50.024Z,81.70
2017-08-22T08:16:18.382Z,81.00
2017-08-22T08:18:46.699Z,80.40
2017-08-22T08:21:15.201Z,80.40
2017-08-22T08:23:43.512Z,81.00
2017-08-22T08:26:11.837Z,76.30
2017-08-22T08:28:40.147Z,75.90
2017-08-22T08:31:08.456Z,75.20
2017-08-22T08:33:36.740Z,77.30
2017-08-22T08:36:05.068Z,79.90
2017-08-22T08:38:33.345Z,77.40
2017-08-22T08:41:01.641Z,75.80
2017-08-22T08:43:29.959Z,78.00
2017-08-22T08:45:58.310Z,76.20
2017-08-22T08:48:26.620Z,76.90
2017-08-22T08:50:55.091Z,76.70
2017-08-22T08:53:23.380Z,77.10
2017-08-22T08:55:51.651Z,75.60
2017-08-22T08:58:19.977Z,74.90
2017-08-22T09:00:48.273Z,74.20
2017-08-22T09:03:16.622Z,74.60
2017-08-22T09:05:44.934Z,75.70
2017-08-22T09:08:13.299Z,76.20
2017-08-22T09:10:41.616Z,80.70
2017-08-22T09:13:09.903Z,75.90
2017-08-22T09:15:38.226Z,76.80
2017-08-22T09:18:06.503Z,74.20
2017-08-22T09:20:34.816Z,74.50
2017-08-22T09:23:03.217Z,72.30
2017-08-22T09:25:31.586Z,72.10
2017-08-22T09:28:00.078Z,73.70
2017-08-22T09:30:28.588Z,74.30
2017-08-22T09:32:56.885Z,75.50
2017-08-22T09:35:25.262Z,77.60
2017-08-22T09:37:53.583Z,72.60
2017-08-22T09:40:21.955Z,72.80
2017-08-22T09:42:50.304Z,74.50
2017-08-22T09:45:18.624Z,74.00
2017-08-22T09:47:47.040Z,75.70
2017-08-22T09:50:15.332Z,75.00
2017-08-22T09:52:43.646Z,77.50
2017-08-22T09:55:12.600Z,75.40
2017-08-22T09:57:40.879Z,79.00
2017-08-22T10:00:09.200Z,74.70
2017-08-22T10:02:37.661Z,71.90
2017-08-22T10:05:06.041Z,72.80
2017-08-22T10:07:34.333Z,73.40
2017-08-22T10:10:02.731Z,71.90
2017-08-22T10:12:31.055Z,72.80
2017-08-22T10:14:59.418Z,71.00
2017-08-22T10:17:27.716Z,67.80
2017-08-22T10:19:56.022Z,69.00
2017-08-22T10:22:24.312Z,69.10
2017-08-22T10:24:52.632Z,70.70
2017-08-22T10:27:20.944Z,70.60
2017-08-22T10:29:49.277Z,71.10
2017-08-22T10:32:17.570Z,69.30
2017-08-22T10:34:45.861Z,71.50
2017-08-22T10:37:14.166Z,71.80
2017-08-22T10:39:42.523Z,72.80
2017-08-22T10:42:10.822Z,73.80
2017-08-22T10:44:39.135Z,74.40
2017-08-22T10:47:08.216Z,73.30
2017-08-22T10:49:36.514Z,73.30
2017-08-22T10:52:04.813Z,71.40
2017-08-22T10:54:33.122Z,71.10
2017-08-22T10:57:01.411Z,72.50
2017-08-22T10:59:29.752Z,72.30
2017-08-22T11:01:58.287Z,72.50
2017-08-22T11:04:26.599Z,75.50
2017-08-22T11:06:55.016Z,75.40
2017-08-22T11:09:23.295Z,73.40
2017-08-22T11:11:51.617Z,73.90
2017-08-22T11:14:20.000Z,74.80
2017-08-22T11:16:48.283Z,74.20
2017-08-22T11:19:16.595Z,74.90
2017-08-22T11:21:44.918Z,75.00
2017-08-22T11:24:13.250Z,74.10
2017-08-22T11:26:41.941Z,71.80
2017-08-22T11:29:10.347Z,72.50
2017-08-22T11:31:38.627Z,72.70
2017-08-22T11:34:06.957Z,69.90
2017-08-22T11:36:35.244Z,69.30
2017-08-22T11:39:03.536Z,71.50
2017-08-22T11:41:31.892Z,71.20
2017-08-22T11:44:00.194Z,71.50
2017-08-22T11:46:28.508Z,74.40
2017-08-22T11:48:56.803Z,69.60
2017-08-22T11:51:25.927Z,71.90
2017-08-22T11:53:54.213Z,72.10
2017-08-22T11:56:22.528Z,70.80
2017-08-22T11:58:50.811Z,72.20
2017-08-22T12:01:19.127Z,73.90
2017-08-22T12:03:47.439Z,72.60
2017-08-22T12:06:15.817Z,73.00
2017-08-22T12:08:44.099Z,72.50
2017-08-22T12:11:12.406Z,72.40
2017-08-22T12:13:40.718Z,73.00
2017-08-22T12:16:09.056Z,72.50
2017-08-22T12:18:37.899Z,73.90
2017-08-22T12:21:06.179Z,74.50
2017-08-22T12:23:34.495Z,75.50
2017-08-22T12:26:02.788Z,73.50
2017-08-22T12:28:31.109Z,75.00
2017-08-22T12:30:59.423Z,73.90
2017-08-22T12:33:27.713Z,73.90
2017-08-22T12:35:56.037Z,75.10
2017-08-22T12:38:24.336Z,73.20
2017-08-22T12:40:52.643Z,71.60
2017-08-22T12:43:21.055Z,73.40
2017-08-22T12:45:49.381Z,71.80
2017-08-22T12:48:17.660Z,70.90
2017-08-22T12:50:45.971Z,68.80
2017-08-22T12:53:14.282Z,71.80
2017-08-22T12:55:42.590Z,69.40
2017-08-22T12:58:10.867Z,68.90
2017-08-22T13:00:39.198Z,70.90
2017-08-22T13:03:07.588Z,69.30
2017-08-22T13:05:35.880Z,70.90
2017-08-22T13:08:04.196Z,70.80
2017-08-22T13:10:32.480Z,71.30
2017-08-22T13:13:01.560Z,71.80
2017-08-22T13:15:29.866Z,71.50
2017-08-22T13:17:58.234Z,72.00
2017-08-22T13:20:26.549Z,68.50
2017-08-22T13:22:54.916Z,67.30
2017-08-22T13:25:23.208Z,68.00
2017-08-22T13:27:51.510Z,65.70
2017-08-22T13:30:19.896Z,66.00
2017-08-22T13:32:48.280Z,65.50
2017-08-22T13:35:16.568Z,66.30
2017-08-22T13:37:44.886Z,65.00
2017-08-22T13:40:13.180Z,69.40
2017-08-22T13:42:42.270Z,67.60
2017-08-22T13:45:10.575Z,67.60
2017-08-22T13:47:38.942Z,70.00
2017-08-22T13:50:07.327Z,67.00
2017-08-22T13:52:35.643Z,70.30
2017-08-22T13:55:03.923Z,68.50
2017-08-22T13:57:33.008Z,68.90
2017-08-22T14:00:01.320Z,68.90
2017-08-22T14:02:29.633Z,69.90
2017-08-22T14:04:57.984Z,70.20
2017-08-22T14:07:26.381Z,73.60
2017-08-22T14:09:54.694Z,68.00
2017-08-22T14:12:23.052Z,69.10
2017-08-22T14:14:51.378Z,66.20
2017-08-22T14:17:19.716Z,66.10
2017-08-22T14:19:47.992Z,66.90
2017-08-22T14:22:16.423Z,67.30
2017-08-22T14:24:44.722Z,66.30
2017-08-22T14:27:13.036Z,67.80
2017-08-22T14:29:41.362Z,66.40
2017-08-22T14:32:09.848Z,66.30
2017-08-22T14:34:38.194Z,66.90
2017-08-22T14:37:06.488Z,69.00
2017-08-22T14:39:34.776Z,70.00
2017-08-22T14:42:03.103Z,70.00
2017-08-22T14:44:31.388Z,69.80
2017-08-22T14:46:59.705Z,69.30
2017-08-22T14:49:27.978Z,72.00
2017-08-22T14:51:56.299Z,71.80
2017-08-22T14:54:24.621Z,71.40
2017-08-22T14:56:52.905Z,72.30
2017-08-22T14:59:22.089Z,71.90
2017-08-22T15:01:50.401Z,71.90
2017-08-22T15:04:18.754Z,70.20
2017-08-22T15:06:47.074Z,68.80
2017-08-22T15:09:15.408Z,68.50
2017-08-22T15:11:43.686Z,69.50
2017-08-22T15:14:12.014Z,71.80
2017-08-22T15:16:40.296Z,68.00
2017-08-22T15:19:08.613Z,71.80
2017-08-22T15:21:36.939Z,67.70
2017-08-22T15:24:05.219Z,64.70
2017-08-22T15:26:33.534Z,65.40
2017-08-22T15:29:01.824Z,62.70
2017-08-22T15:31:30.113Z,61.00
2017-08-22T15:33:58.427Z,58.80
2017-08-22T15:36:26.752Z,57.70
2017-08-22T15:38:55.063Z,56.30
2017-08-22T15:41:23.351Z,56.60
2017-08-22T15:43:51.658Z,59.20
2017-08-22T15:46:20.102Z,60.40
2017-08-22T15:48:48.370Z,62.70
2017-08-22T15:51:16.664Z,65.10
2017-08-22T15:53:44.973Z,62.80
2017-08-22T15:56:13.333Z,62.80
2017-08-22T15:58:41.648Z,63.60
2017-08-22T16:01:10.829Z,65.70
2017-08-22T16:03:39.144Z,65.50
2017-08-22T16:06:07.431Z,64.80
2017-08-22T16:08:35.744Z,64.90
2017-08-22T16:11:04.064Z,67.10
2017-08-22T16:13:32.475Z,67.50
2017-08-22T16:16:00.760Z,68.00
2017-08-22T16:18:29.075Z,67.60
2017-08-22T16:20:57.460Z,68.60
2017-08-22T16:23:25.745Z,70.10
2017-08-22T16:25:54.093Z,72.80
2017-08-22T16:28:22.384Z,70.70
2017-08-22T16:30:50.811Z,71.10
2017-08-22T16:33:19.106Z,69.50
2017-08-22T16:35:47.386Z,70.30
2017-08-22T16:38:15.791Z,70.50
2017-08-22T16:40:44.192Z,71.40
2017-08-22T16:43:12.482Z,70.10
2017-08-22T16:45:40.794Z,70.40
2017-08-22T16:48:09.110Z,71.20
2017-08-22T16:50:37.424Z,73.80
2017-08-22T16:53:05.725Z,73.30
2017-08-22T16:55:34.058Z,73.30
2017-08-22T16:58:02.379Z,73.80
2017-08-22T17:00:30.655Z,75.00
2017-08-22T17:02:58.983Z,74.70
2017-08-22T17:05:27.310Z,75.50
2017-08-22T17:07:55.592Z,75.30
2017-08-22T17:10:23.918Z,75.80
2017-08-22T17:12:52.330Z,75.80
2017-08-22T17:15:20.658Z,76.70
2017-08-22T17:17:48.935Z,77.10
2017-08-22T17:20:17.250Z,77.00
2017-08-22T17:22:45.580Z,77.40
2017-08-22T17:25:13.991Z,77.90
2017-08-22T17:27:42.289Z,78.30
2017-08-22T17:30:10.692Z,79.10
2017-08-22T17:32:39.008Z,79.90
2017-08-22T17:35:07.366Z,78.20
2017-08-22T17:37:35.671Z,78.10
2017-08-22T17:40:03.989Z,79.60
2017-08-22T17:42:32.290Z,81.30
2017-08-22T17:45:00.616Z,79.00
2017-08-22T17:47:28.931Z,79.30
2017-08-22T17:49:57.307Z,80.00
2017-08-22T17:52:25.628Z,79.90
2017-08-22T17:54:53.912Z,80.30
2017-08-22T17:57:22.227Z,80.00
2017-08-22T17:59:51.616Z,81.10
2017-08-22T18:02:19.903Z,80.70
2017-08-22T18:04:48.224Z,81.30
2017-08-22T18:07:16.536Z,82.60
2017-08-22T18:09:44.940Z,82.90
2017-08-22T18:12:13.270Z,82.50
2017-08-22T18:14:41.555Z,82.20
2017-08-22T18:17:09.891Z,83.20
2017-08-22T18:19:38.216Z,83.80
2017-08-22T18:22:06.508Z,84.80
2017-08-22T18:24:35.601Z,84.00
2017-08-22T18:27:03.985Z,84.00
2017-08-22T18:29:32.366Z,85.20
2017-08-22T18:32:00.665Z,85.70
2017-08-22T18:34:28.976Z,86.20
2017-08-22T18:36:57.290Z,87.20
2017-08-22T18:39:25.570Z,88.90
2017-08-22T18:41:53.850Z,88.70
2017-08-22T18:44:22.927Z,88.90
2017-08-22T18:46:51.207Z,88.90
2017-08-22T18:49:19.599Z,88.50
2017-08-22T18:51:47.889Z,89.00
2017-08-22T18:54:16.213Z,90.20
2017-08-22T18:56:44.499Z,90.10
2017-08-22T18:59:12.872Z,89.70
2017-08-22T19:01:41.256Z,90.00
2017-08-22T19:04:09.542Z,90.20
2017-08-22T19:06:38.836Z,90.40
2017-08-22T19:09:07.120Z,90.50
2017-08-22T19:11:35.531Z,90.50
2017-08-22T19:14:03.814Z,91.20
2017-08-22T19:16:32.141Z,91.70
2017-08-22T19:19:01.206Z,90.50
2017-08-22T19:21:29.507Z,90.50
2017-08-22T19:23:57.825Z,90.40
2017-08-22T19:26:26.113Z,90.40
2017-08-22T19:28:54.425Z,91.40
2017-08-22T19:31:22.769Z,90.30
2017-08-22T19:33:51.056Z,91.40
2017-08-22T19:36:19.344Z,88.70
2017-08-22T19:38:47.660Z,90.30
2017-08-22T19:41:15.972Z,90.00
2017-08-22T19:43:44.278Z,90.40
2017-08-22T19:46:12.568Z,90.40
2017-08-22T19:48:40.889Z,90.00
2017-08-22T19:51:09.199Z,90.20
2017-08-22T19:53:37.579Z,90.40
2017-08-22T19:56:05.883Z,90.50
2017-08-22T19:58:34.205Z,90.70
2017-08-22T20:01:02.499Z,91.10
2017-08-22T20:03:31.752Z,91.10
2017-08-22T20:06:00.158Z,91.40
2017-08-22T20:08:28.453Z,91.50
2017-08-22T20:10:56.754Z,91.50
2017-08-22T20:13:25.811Z,91.80
2017-08-22T20:15:54.110Z,91.80
2017-08-22T20:18:22.514Z,92.20
2017-08-22T20:20:51.750Z,92.40
2017-08-22T20:23:20.036Z,92.70
2017-08-22T20:25:48.356Z,93.00
2017-08-22T20:28:16.635Z,93.10
2017-08-22T20:30:45.640Z,93.20
2017-08-22T20:33:13.945Z,93.30
2017-08-22T20:35:42.218Z,93.30
2017-08-22T20:38:10.540Z,93.60
2017-08-22T20:40:38.819Z,93.70
2017-08-22T20:43:07.127Z,94.00
2017-08-22T20:45:35.424Z,94.10
2017-08-22T20:48:04.701Z,94.30
2017-08-22T20:50:32.988Z,94.40
2017-08-22T20:53:01.990Z,94.60
2017-08-22T20:55:30.296Z,94.80
2017-08-22T20:57:58.599Z,95.00
2017-08-22T21:00:26.911Z,95.10
2017-08-22T21:02:55.294Z,95.10
2017-08-22T21:05:23.688Z,95.10
2017-08-22T21:07:52.080Z,95.20
2017-08-22T21:10:20.400Z,95.30
2017-08-22T21:12:48.711Z,95.40
2017-08-22T21:15:19.781Z,95.50
2017-08-22T21:17:48.109Z,95.60
2017-08-22T21:20:16.429Z,95.70
2017-08-22T21:22:44.707Z,95.70
2017-08-22T21:25:13.800Z,96.10
2017-08-22T21:27:42.081Z,96.10
2017-08-22T21:30:10.401Z,96.20
2017-08-22T21:32:38.689Z,96.30
2017-08-22T21:35:07.776Z,96.60
2017-08-22T21:37:36.076Z,96.60
2017-08-22T21:40:04.364Z,96.70
2017-08-22T21:42:32.688Z,96.70
2017-08-22T21:45:00.995Z,96.80
2017-08-22T21:47:29.302Z,96.80
2017-08-22T21:49:57.587Z,96.70
2017-08-22T21:52:25.986Z,96.70
2017-08-22T21:54:54.266Z,96.80
2017-08-22T21:57:22.937Z,96.90
2017-08-22T21:59:51.256Z,97.00
2017-08-22T22:02:19.739Z,96.90
2017-08-22T22:04:50.364Z,96.90
2017-08-22T22:07:18.774Z,96.90
2017-08-22T22:09:47.108Z,96.90
2017-08-22T22:12:15.406Z,96.90
2017-08-22T22:14:43.943Z,97.10
2017-08-22T22:17:12.257Z,97.10
2017-08-22T22:19:40.888Z,97.20
2017-08-22T22:22:09.971Z,96.90
2017-08-22T22:24:38.318Z,96.90
2017-08-22T22:27:06.600Z,97.00
2017-08-22T22:29:34.920Z,97.10
2017-08-22T22:32:03.216Z,97.20
2017-08-22T22:34:31.541Z,97.20
2017-08-22T22:36:59.837Z,97.20
2017-08-22T22:39:28.192Z,97.30
2017-08-22T22:41:56.540Z,97.10
2017-08-22T22:44:24.831Z,97.10
2017-08-22T22:46:53.152Z,97.10
2017-08-22T22:49:24.308Z,97.10
2017-08-22T22:51:52.626Z,97.00
2017-08-22T22:54:20.989Z,97.10
2017-08-22T22:56:49.281Z,97.20
2017-08-22T22:59:17.602Z,97.20
2017-08-22T23:01:45.928Z,97.20
2017-08-22T23:04:14.215Z,97.20
2017-08-22T23:06:42.549Z,97.20
2017-08-22T23:09:10.830Z,97.10
2017-08-22T23:11:39.110Z,97.20
2017-08-22T23:14:07.440Z,97.30
2017-08-22T23:16:35.722Z,97.40
2017-08-22T23:19:04.019Z,97.50
2017-08-22T23:21:32.368Z,97.50
2017-08-22T23:24:00.650Z,97.60
2017-08-22T23:26:28.968Z,97.50
2017-08-22T23:28:57.256Z,97.50
2017-08-22T23:31:25.572Z,97.60
2017-08-22T23:33:53.861Z,97.70
2017-08-22T23:36:22.204Z,97.80
2017-08-22T23:38:50.479Z,97.90
2017-08-22T23:41:18.775Z,97.70
2017-08-22T23:43:47.094Z,97.60
2017-08-22T23:46:15.375Z,97.70
2017-08-22T23:48:44.468Z,97.70
2017-08-22T23:51:12.772Z,97.70
2017-08-22T23:53:41.093Z,97.70
2017-08-22T23:56:09.380Z,97.60
2017-08-22T23:58:38.268Z,97.60
